sensor_id;sensor_type;location;lat;lon;timestamp;temperature;humidity
30534;DHT22;17318;52.390;9.754;2023-05-07T00:01:26;13.00;99.90
30534;DHT22;17318;52.390;9.754;2023-05-07T00:03:51;13.10;99.90
30534;DHT22;17318;52.390;9.754;2023-05-07T00:06:17;13.10;99.90
30534;DHT22;17318;52.390;9.754;2023-05-07T00:08:42;13.10;99.90
30534;DHT22;17318;52.390;9.754;2023-05-07T00:11:08;13.00;99.90
30534;DHT22;17318;52.390;9.754;2023-05-07T00:13:34;13.10;99.90
30534;DHT22;17318;52.390;9.754;2023-05-07T00:16:02;13.00;99.90
30534;DHT22;17318;52.390;9.754;2023-05-07T00:18:28;12.90;99.90
30534;DHT22;17318;52.390;9.754;2023-05-07T00:20:53;13.00;99.90
30534;DHT22;17318;52.390;9.754;2023-05-07T00:23:19;13.00;99.90
30534;DHT22;17318;52.390;9.754;2023-05-07T00:25:45;13.00;99.90
30534;DHT22;17318;52.390;9.754;2023-05-07T00:28:13;12.90;99.90
30534;DHT22;17318;52.390;9.754;2023-05-07T00:30:39;12.90;99.90
30534;DHT22;17318;52.390;9.754;2023-05-07T00:33:04;12.90;99.90
30534;DHT22;17318;52.390;9.754;2023-05-07T00:35:30;12.90;99.90
30534;DHT22;17318;52.390;9.754;2023-05-07T00:37:55;12.80;99.90
30534;DHT22;17318;52.390;9.754;2023-05-07T00:40:21;12.80;99.90
30534;DHT22;17318;52.390;9.754;2023-05-07T00:42:47;12.70;99.90
30534;DHT22;17318;52.390;9.754;2023-05-07T00:45:14;12.70;99.90
30534;DHT22;17318;52.390;9.754;2023-05-07T00:47:40;12.60;99.90
30534;DHT22;17318;52.390;9.754;2023-05-07T00:50:07;12.50;99.90
30534;DHT22;17318;52.390;9.754;2023-05-07T00:52:33;12.40;99.90
30534;DHT22;17318;52.390;9.754;2023-05-07T00:55:04;12.40;99.90
30534;DHT22;17318;52.390;9.754;2023-05-07T00:57:39;12.50;99.90
30534;DHT22;17318;52.390;9.754;2023-05-07T01:00:06;12.40;99.90
30534;DHT22;17318;52.390;9.754;2023-05-07T01:02:34;12.40;99.90
30534;DHT22;17318;52.390;9.754;2023-05-07T01:05:01;12.40;99.90
30534;DHT22;17318;52.390;9.754;2023-05-07T01:07:27;12.40;99.90
30534;DHT22;17318;52.390;9.754;2023-05-07T01:09:54;12.40;99.90
30534;DHT22;17318;52.390;9.754;2023-05-07T01:12:20;12.50;99.90
30534;DHT22;17318;52.390;9.754;2023-05-07T01:14:46;12.50;99.90
30534;DHT22;17318;52.390;9.754;2023-05-07T01:17:11;12.50;99.90
30534;DHT22;17318;52.390;9.754;2023-05-07T01:19:37;12.50;99.90
30534;DHT22;17318;52.390;9.754;2023-05-07T01:22:08;12.50;99.90
30534;DHT22;17318;52.390;9.754;2023-05-07T01:24:35;12.40;99.90
30534;DHT22;17318;52.390;9.754;2023-05-07T01:27:01;12.50;99.90
30534;DHT22;17318;52.390;9.754;2023-05-07T01:29:27;12.50;99.90
30534;DHT22;17318;52.390;9.754;2023-05-07T01:31:55;12.60;99.90
30534;DHT22;17318;52.390;9.754;2023-05-07T01:34:22;12.60;99.90
30534;DHT22;17318;52.390;9.754;2023-05-07T01:36:50;12.50;99.90
30534;DHT22;17318;52.390;9.754;2023-05-07T01:39:16;12.50;99.90
30534;DHT22;17318;52.390;9.754;2023-05-07T01:41:43;12.40;99.90
30534;DHT22;17318;52.390;9.754;2023-05-07T01:44:10;12.40;99.90
30534;DHT22;17318;52.390;9.754;2023-05-07T01:46:37;12.40;99.90
30534;DHT22;17318;52.390;9.754;2023-05-07T01:49:03;12.40;99.90
30534;DHT22;17318;52.390;9.754;2023-05-07T01:51:29;12.40;99.90
30534;DHT22;17318;52.390;9.754;2023-05-07T01:53:55;12.40;99.90
30534;DHT22;17318;52.390;9.754;2023-05-07T01:56:21;12.30;99.90
30534;DHT22;17318;52.390;9.754;2023-05-07T01:58:47;12.30;99.90
30534;DHT22;17318;52.390;9.754;2023-05-07T02:01:13;12.30;99.90
30534;DHT22;17318;52.390;9.754;2023-05-07T02:03:39;12.40;99.90
30534;DHT22;17318;52.390;9.754;2023-05-07T02:06:05;12.30;99.90
30534;DHT22;17318;52.390;9.754;2023-05-07T02:08:31;12.30;99.90
30534;DHT22;17318;52.390;9.754;2023-05-07T02:10:56;12.40;99.90
30534;DHT22;17318;52.390;9.754;2023-05-07T02:13:22;12.40;99.90
30534;DHT22;17318;52.390;9.754;2023-05-07T02:15:49;12.30;99.90
30534;DHT22;17318;52.390;9.754;2023-05-07T02:18:16;12.30;99.90
30534;DHT22;17318;52.390;9.754;2023-05-07T02:20:42;12.30;99.90
30534;DHT22;17318;52.390;9.754;2023-05-07T02:23:08;12.30;99.90
30534;DHT22;17318;52.390;9.754;2023-05-07T02:25:34;12.30;99.90
30534;DHT22;17318;52.390;9.754;2023-05-07T02:27:59;12.30;99.90
30534;DHT22;17318;52.390;9.754;2023-05-07T02:30:25;12.30;99.90
30534;DHT22;17318;52.390;9.754;2023-05-07T02:32:51;12.30;99.90
30534;DHT22;17318;52.390;9.754;2023-05-07T02:35:17;12.30;99.90
30534;DHT22;17318;52.390;9.754;2023-05-07T02:37:42;12.20;99.90
30534;DHT22;17318;52.390;9.754;2023-05-07T02:40:09;12.30;99.90
30534;DHT22;17318;52.390;9.754;2023-05-07T02:42:35;12.30;99.90
30534;DHT22;17318;52.390;9.754;2023-05-07T02:45:01;12.30;99.90
30534;DHT22;17318;52.390;9.754;2023-05-07T02:47:26;12.30;99.90
30534;DHT22;17318;52.390;9.754;2023-05-07T02:49:54;12.30;99.90
30534;DHT22;17318;52.390;9.754;2023-05-07T02:52:20;12.30;99.90
30534;DHT22;17318;52.390;9.754;2023-05-07T02:54:45;12.30;99.90
30534;DHT22;17318;52.390;9.754;2023-05-07T02:57:11;12.30;99.90
30534;DHT22;17318;52.390;9.754;2023-05-07T02:59:37;12.30;99.90
30534;DHT22;17318;52.390;9.754;2023-05-07T03:02:02;12.20;99.90
30534;DHT22;17318;52.390;9.754;2023-05-07T03:04:28;12.20;99.90
30534;DHT22;17318;52.390;9.754;2023-05-07T03:06:54;12.20;99.90
30534;DHT22;17318;52.390;9.754;2023-05-07T03:09:20;12.30;99.90
30534;DHT22;17318;52.390;9.754;2023-05-07T03:11:45;12.20;99.90
30534;DHT22;17318;52.390;9.754;2023-05-07T03:14:11;12.20;99.90
30534;DHT22;17318;52.390;9.754;2023-05-07T03:16:38;12.20;99.90
30534;DHT22;17318;52.390;9.754;2023-05-07T03:19:03;12.30;99.90
30534;DHT22;17318;52.390;9.754;2023-05-07T03:21:29;12.10;99.90
30534;DHT22;17318;52.390;9.754;2023-05-07T03:23:56;12.20;99.90
30534;DHT22;17318;52.390;9.754;2023-05-07T03:26:22;12.30;99.90
30534;DHT22;17318;52.390;9.754;2023-05-07T03:28:47;12.30;99.90
30534;DHT22;17318;52.390;9.754;2023-05-07T03:31:13;12.30;99.90
30534;DHT22;17318;52.390;9.754;2023-05-07T03:33:52;12.30;99.90
30534;DHT22;17318;52.390;9.754;2023-05-07T03:36:19;12.20;99.90
30534;DHT22;17318;52.390;9.754;2023-05-07T03:38:44;12.20;99.90
30534;DHT22;17318;52.390;9.754;2023-05-07T03:41:11;12.20;99.90
30534;DHT22;17318;52.390;9.754;2023-05-07T03:43:36;12.30;99.90
30534;DHT22;17318;52.390;9.754;2023-05-07T03:46:02;12.10;99.90
30534;DHT22;17318;52.390;9.754;2023-05-07T03:48:27;12.10;99.90
30534;DHT22;17318;52.390;9.754;2023-05-07T03:50:53;12.10;99.90
30534;DHT22;17318;52.390;9.754;2023-05-07T03:53:19;12.00;99.90
30534;DHT22;17318;52.390;9.754;2023-05-07T03:55:44;12.00;99.90
30534;DHT22;17318;52.390;9.754;2023-05-07T03:58:10;12.10;99.90
30534;DHT22;17318;52.390;9.754;2023-05-07T04:00:36;12.00;99.90
30534;DHT22;17318;52.390;9.754;2023-05-07T04:03:04;12.00;99.90
30534;DHT22;17318;52.390;9.754;2023-05-07T04:05:30;12.00;99.90
30534;DHT22;17318;52.390;9.754;2023-05-07T04:07:58;12.00;99.90
30534;DHT22;17318;52.390;9.754;2023-05-07T04:10:23;12.00;99.90
30534;DHT22;17318;52.390;9.754;2023-05-07T04:12:49;12.00;99.90
30534;DHT22;17318;52.390;9.754;2023-05-07T04:15:15;12.00;99.90
30534;DHT22;17318;52.390;9.754;2023-05-07T04:17:40;12.00;99.90
30534;DHT22;17318;52.390;9.754;2023-05-07T04:20:09;12.10;99.90
30534;DHT22;17318;52.390;9.754;2023-05-07T04:22:36;12.10;99.90
30534;DHT22;17318;52.390;9.754;2023-05-07T04:25:03;12.10;99.90
30534;DHT22;17318;52.390;9.754;2023-05-07T04:27:28;12.10;99.90
30534;DHT22;17318;52.390;9.754;2023-05-07T04:29:54;12.10;99.90
30534;DHT22;17318;52.390;9.754;2023-05-07T04:32:21;12.10;99.90
30534;DHT22;17318;52.390;9.754;2023-05-07T04:34:47;12.00;99.90
30534;DHT22;17318;52.390;9.754;2023-05-07T04:37:13;12.00;99.90
30534;DHT22;17318;52.390;9.754;2023-05-07T04:39:39;12.00;99.90
30534;DHT22;17318;52.390;9.754;2023-05-07T04:42:04;12.10;99.90
30534;DHT22;17318;52.390;9.754;2023-05-07T04:44:32;12.00;99.90
30534;DHT22;17318;52.390;9.754;2023-05-07T04:46:58;12.00;99.90
30534;DHT22;17318;52.390;9.754;2023-05-07T04:49:24;12.00;99.90
30534;DHT22;17318;52.390;9.754;2023-05-07T04:51:50;12.00;99.90
30534;DHT22;17318;52.390;9.754;2023-05-07T04:54:15;12.00;99.90
30534;DHT22;17318;52.390;9.754;2023-05-07T04:56:41;12.00;99.90
30534;DHT22;17318;52.390;9.754;2023-05-07T04:59:06;12.00;99.90
30534;DHT22;17318;52.390;9.754;2023-05-07T05:01:32;12.00;99.90
30534;DHT22;17318;52.390;9.754;2023-05-07T05:03:58;11.90;99.90
30534;DHT22;17318;52.390;9.754;2023-05-07T05:06:25;12.00;99.90
30534;DHT22;17318;52.390;9.754;2023-05-07T05:08:51;11.90;99.90
30534;DHT22;17318;52.390;9.754;2023-05-07T05:11:17;12.00;99.90
30534;DHT22;17318;52.390;9.754;2023-05-07T05:13:42;12.10;99.90
30534;DHT22;17318;52.390;9.754;2023-05-07T05:16:08;12.10;99.90
30534;DHT22;17318;52.390;9.754;2023-05-07T05:18:34;12.00;99.90
30534;DHT22;17318;52.390;9.754;2023-05-07T05:21:00;12.10;99.90
30534;DHT22;17318;52.390;9.754;2023-05-07T05:23:26;12.00;99.90
30534;DHT22;17318;52.390;9.754;2023-05-07T05:25:58;12.00;99.90
30534;DHT22;17318;52.390;9.754;2023-05-07T05:28:24;12.10;99.90
30534;DHT22;17318;52.390;9.754;2023-05-07T05:30:50;12.10;99.80
30534;DHT22;17318;52.390;9.754;2023-05-07T05:33:15;12.00;99.80
30534;DHT22;17318;52.390;9.754;2023-05-07T05:35:41;12.10;99.70
30534;DHT22;17318;52.390;9.754;2023-05-07T05:38:07;12.00;99.70
30534;DHT22;17318;52.390;9.754;2023-05-07T05:40:33;12.00;99.90
30534;DHT22;17318;52.390;9.754;2023-05-07T05:42:59;12.00;99.80
30534;DHT22;17318;52.390;9.754;2023-05-07T05:45:25;12.00;99.90
30534;DHT22;17318;52.390;9.754;2023-05-07T05:47:51;11.90;99.70
30534;DHT22;17318;52.390;9.754;2023-05-07T05:50:17;12.00;99.70
30534;DHT22;17318;52.390;9.754;2023-05-07T05:52:42;12.00;99.50
30534;DHT22;17318;52.390;9.754;2023-05-07T05:55:09;12.00;99.60
30534;DHT22;17318;52.390;9.754;2023-05-07T05:57:35;12.00;99.50
30534;DHT22;17318;52.390;9.754;2023-05-07T06:00:01;12.10;99.40
30534;DHT22;17318;52.390;9.754;2023-05-07T06:02:27;12.10;99.20
30534;DHT22;17318;52.390;9.754;2023-05-07T06:04:53;12.00;99.30
30534;DHT22;17318;52.390;9.754;2023-05-07T06:07:19;12.10;99.30
30534;DHT22;17318;52.390;9.754;2023-05-07T06:09:45;12.10;99.20
30534;DHT22;17318;52.390;9.754;2023-05-07T06:12:11;12.00;99.10
30534;DHT22;17318;52.390;9.754;2023-05-07T06:14:37;12.10;99.20
30534;DHT22;17318;52.390;9.754;2023-05-07T06:17:02;12.10;99.10
30534;DHT22;17318;52.390;9.754;2023-05-07T06:19:28;12.10;99.00
30534;DHT22;17318;52.390;9.754;2023-05-07T06:21:54;12.10;99.20
30534;DHT22;17318;52.390;9.754;2023-05-07T06:24:21;12.10;99.10
30534;DHT22;17318;52.390;9.754;2023-05-07T06:26:47;12.20;99.10
30534;DHT22;17318;52.390;9.754;2023-05-07T06:29:13;12.20;99.10
30534;DHT22;17318;52.390;9.754;2023-05-07T06:31:39;12.20;99.10
30534;DHT22;17318;52.390;9.754;2023-05-07T06:34:04;12.30;99.00
30534;DHT22;17318;52.390;9.754;2023-05-07T06:36:30;12.30;99.10
30534;DHT22;17318;52.390;9.754;2023-05-07T06:38:56;12.30;99.10
30534;DHT22;17318;52.390;9.754;2023-05-07T06:41:21;12.50;98.90
30534;DHT22;17318;52.390;9.754;2023-05-07T06:43:47;12.50;98.70
30534;DHT22;17318;52.390;9.754;2023-05-07T06:46:13;12.50;98.60
30534;DHT22;17318;52.390;9.754;2023-05-07T06:48:38;12.50;98.60
30534;DHT22;17318;52.390;9.754;2023-05-07T06:51:04;12.60;98.50
30534;DHT22;17318;52.390;9.754;2023-05-07T06:53:30;12.60;98.30
30534;DHT22;17318;52.390;9.754;2023-05-07T06:55:56;12.60;98.20
30534;DHT22;17318;52.390;9.754;2023-05-07T06:58:22;12.60;98.30
30534;DHT22;17318;52.390;9.754;2023-05-07T07:00:48;12.60;98.20
30534;DHT22;17318;52.390;9.754;2023-05-07T07:03:14;12.60;98.40
30534;DHT22;17318;52.390;9.754;2023-05-07T07:05:42;12.60;98.40
30534;DHT22;17318;52.390;9.754;2023-05-07T07:08:09;12.70;98.40
30534;DHT22;17318;52.390;9.754;2023-05-07T07:10:35;12.80;98.40
30534;DHT22;17318;52.390;9.754;2023-05-07T07:13:01;12.80;98.40
30534;DHT22;17318;52.390;9.754;2023-05-07T07:15:26;12.80;98.30
30534;DHT22;17318;52.390;9.754;2023-05-07T07:17:52;12.70;98.30
30534;DHT22;17318;52.390;9.754;2023-05-07T07:20:18;12.70;98.30
30534;DHT22;17318;52.390;9.754;2023-05-07T07:22:44;12.90;98.20
30534;DHT22;17318;52.390;9.754;2023-05-07T07:25:10;13.00;98.20
30534;DHT22;17318;52.390;9.754;2023-05-07T07:27:37;13.10;98.10
30534;DHT22;17318;52.390;9.754;2023-05-07T07:30:03;13.10;98.20
30534;DHT22;17318;52.390;9.754;2023-05-07T07:32:29;13.10;97.60
30534;DHT22;17318;52.390;9.754;2023-05-07T07:34:54;13.20;97.60
30534;DHT22;17318;52.390;9.754;2023-05-07T07:37:20;13.20;97.50
30534;DHT22;17318;52.390;9.754;2023-05-07T07:39:46;13.30;97.40
30534;DHT22;17318;52.390;9.754;2023-05-07T07:42:11;13.20;97.40
30534;DHT22;17318;52.390;9.754;2023-05-07T07:44:37;13.30;97.40
30534;DHT22;17318;52.390;9.754;2023-05-07T07:47:05;13.40;97.20
30534;DHT22;17318;52.390;9.754;2023-05-07T07:49:31;13.40;97.20
30534;DHT22;17318;52.390;9.754;2023-05-07T07:51:57;13.30;97.00
30534;DHT22;17318;52.390;9.754;2023-05-07T07:54:25;13.50;97.30
30534;DHT22;17318;52.390;9.754;2023-05-07T07:56:51;13.50;97.10
30534;DHT22;17318;52.390;9.754;2023-05-07T07:59:16;13.60;97.00
30534;DHT22;17318;52.390;9.754;2023-05-07T08:01:44;13.70;97.00
30534;DHT22;17318;52.390;9.754;2023-05-07T08:04:10;13.70;96.80
30534;DHT22;17318;52.390;9.754;2023-05-07T08:06:36;13.80;96.70
30534;DHT22;17318;52.390;9.754;2023-05-07T08:09:03;13.90;96.50
30534;DHT22;17318;52.390;9.754;2023-05-07T08:11:28;13.90;96.50
30534;DHT22;17318;52.390;9.754;2023-05-07T08:13:56;14.00;96.60
30534;DHT22;17318;52.390;9.754;2023-05-07T08:16:22;14.10;96.30
30534;DHT22;17318;52.390;9.754;2023-05-07T08:18:47;14.20;96.20
30534;DHT22;17318;52.390;9.754;2023-05-07T08:21:13;14.30;96.20
30534;DHT22;17318;52.390;9.754;2023-05-07T08:23:39;14.40;95.90
30534;DHT22;17318;52.390;9.754;2023-05-07T08:26:04;14.30;95.80
30534;DHT22;17318;52.390;9.754;2023-05-07T08:28:30;14.40;95.80
30534;DHT22;17318;52.390;9.754;2023-05-07T08:30:56;14.30;95.80
30534;DHT22;17318;52.390;9.754;2023-05-07T08:33:25;14.20;95.80
30534;DHT22;17318;52.390;9.754;2023-05-07T08:35:50;14.30;95.90
30534;DHT22;17318;52.390;9.754;2023-05-07T08:38:16;14.20;95.90
30534;DHT22;17318;52.390;9.754;2023-05-07T08:40:42;14.10;96.10
30534;DHT22;17318;52.390;9.754;2023-05-07T08:43:07;14.10;96.20
30534;DHT22;17318;52.390;9.754;2023-05-07T08:45:34;14.10;96.50
30534;DHT22;17318;52.390;9.754;2023-05-07T08:48:02;14.20;96.30
30534;DHT22;17318;52.390;9.754;2023-05-07T08:50:29;14.20;96.00
30534;DHT22;17318;52.390;9.754;2023-05-07T08:52:55;14.10;96.00
30534;DHT22;17318;52.390;9.754;2023-05-07T08:55:22;14.00;96.30
30534;DHT22;17318;52.390;9.754;2023-05-07T08:57:48;13.90;96.40
30534;DHT22;17318;52.390;9.754;2023-05-07T09:00:14;14.10;96.40
30534;DHT22;17318;52.390;9.754;2023-05-07T09:02:40;14.10;96.30
30534;DHT22;17318;52.390;9.754;2023-05-07T09:05:06;14.20;96.20
30534;DHT22;17318;52.390;9.754;2023-05-07T09:07:32;14.20;96.40
30534;DHT22;17318;52.390;9.754;2023-05-07T09:09:58;14.30;96.30
30534;DHT22;17318;52.390;9.754;2023-05-07T09:12:24;14.30;96.50
30534;DHT22;17318;52.390;9.754;2023-05-07T09:14:50;14.30;96.10
30534;DHT22;17318;52.390;9.754;2023-05-07T09:17:16;14.40;96.30
30534;DHT22;17318;52.390;9.754;2023-05-07T09:19:44;14.50;96.10
30534;DHT22;17318;52.390;9.754;2023-05-07T09:22:09;14.40;96.20
30534;DHT22;17318;52.390;9.754;2023-05-07T09:24:37;14.50;96.30
30534;DHT22;17318;52.390;9.754;2023-05-07T09:27:07;14.50;95.90
30534;DHT22;17318;52.390;9.754;2023-05-07T09:29:34;14.50;96.00
30534;DHT22;17318;52.390;9.754;2023-05-07T09:32:05;14.50;96.30
30534;DHT22;17318;52.390;9.754;2023-05-07T09:34:31;14.50;96.10
30534;DHT22;17318;52.390;9.754;2023-05-07T09:37:04;14.40;95.90
30534;DHT22;17318;52.390;9.754;2023-05-07T09:39:47;14.50;96.00
30534;DHT22;17318;52.390;9.754;2023-05-07T09:42:13;14.40;95.80
30534;DHT22;17318;52.390;9.754;2023-05-07T09:44:40;14.50;95.90
30534;DHT22;17318;52.390;9.754;2023-05-07T09:47:07;14.60;95.80
30534;DHT22;17318;52.390;9.754;2023-05-07T09:49:37;14.50;95.70
30534;DHT22;17318;52.390;9.754;2023-05-07T09:52:05;14.50;95.90
30534;DHT22;17318;52.390;9.754;2023-05-07T09:54:35;14.40;95.80
30534;DHT22;17318;52.390;9.754;2023-05-07T09:57:04;14.40;95.80
30534;DHT22;17318;52.390;9.754;2023-05-07T09:59:31;14.50;95.80
30534;DHT22;17318;52.390;9.754;2023-05-07T10:02:00;14.40;95.70
30534;DHT22;17318;52.390;9.754;2023-05-07T10:04:27;14.40;95.80
30534;DHT22;17318;52.390;9.754;2023-05-07T10:06:53;14.50;95.70
30534;DHT22;17318;52.390;9.754;2023-05-07T10:09:21;14.50;95.60
30534;DHT22;17318;52.390;9.754;2023-05-07T10:11:49;14.50;95.60
30534;DHT22;17318;52.390;9.754;2023-05-07T10:14:14;14.50;95.60
30534;DHT22;17318;52.390;9.754;2023-05-07T10:16:41;14.60;95.70
30534;DHT22;17318;52.390;9.754;2023-05-07T10:19:08;14.50;95.60
30534;DHT22;17318;52.390;9.754;2023-05-07T10:21:37;14.60;95.70
30534;DHT22;17318;52.390;9.754;2023-05-07T10:24:08;14.70;95.70
30534;DHT22;17318;52.390;9.754;2023-05-07T10:26:45;14.80;95.60
30534;DHT22;17318;52.390;9.754;2023-05-07T10:29:20;14.80;95.50
30534;DHT22;17318;52.390;9.754;2023-05-07T10:34:40;14.60;95.40
30534;DHT22;17318;52.390;9.754;2023-05-07T10:37:08;14.70;95.30
30534;DHT22;17318;52.390;9.754;2023-05-07T10:39:34;14.70;95.20
30534;DHT22;17318;52.390;9.754;2023-05-07T10:42:10;14.70;95.20
30534;DHT22;17318;52.390;9.754;2023-05-07T10:44:36;14.60;95.30
30534;DHT22;17318;52.390;9.754;2023-05-07T10:47:10;14.50;95.50
30534;DHT22;17318;52.390;9.754;2023-05-07T10:52:16;14.60;95.40
30534;DHT22;17318;52.390;9.754;2023-05-07T10:54:43;14.70;95.30
30534;DHT22;17318;52.390;9.754;2023-05-07T10:57:34;14.60;95.30
30534;DHT22;17318;52.390;9.754;2023-05-07T11:05:30;15.00;95.10
30534;DHT22;17318;52.390;9.754;2023-05-07T11:07:57;15.10;94.90
30534;DHT22;17318;52.390;9.754;2023-05-07T11:10:23;15.20;94.70
30534;DHT22;17318;52.390;9.754;2023-05-07T11:12:50;15.40;94.40
30534;DHT22;17318;52.390;9.754;2023-05-07T11:15:40;15.50;94.50
30534;DHT22;17318;52.390;9.754;2023-05-07T11:18:07;15.50;94.30
30534;DHT22;17318;52.390;9.754;2023-05-07T11:20:49;15.70;94.20
30534;DHT22;17318;52.390;9.754;2023-05-07T11:26:07;15.70;93.90
30534;DHT22;17318;52.390;9.754;2023-05-07T11:28:41;15.70;94.00
30534;DHT22;17318;52.390;9.754;2023-05-07T11:31:08;15.90;93.80
30534;DHT22;17318;52.390;9.754;2023-05-07T11:33:34;15.90;93.70
30534;DHT22;17318;52.390;9.754;2023-05-07T11:36:01;16.00;93.80
30534;DHT22;17318;52.390;9.754;2023-05-07T11:38:28;16.10;93.40
30534;DHT22;17318;52.390;9.754;2023-05-07T11:40:56;16.10;93.20
30534;DHT22;17318;52.390;9.754;2023-05-07T11:43:22;16.00;93.20
30534;DHT22;17318;52.390;9.754;2023-05-07T11:45:49;16.30;93.20
30534;DHT22;17318;52.390;9.754;2023-05-07T11:48:16;16.20;93.20
30534;DHT22;17318;52.390;9.754;2023-05-07T11:50:51;16.30;93.20
30534;DHT22;17318;52.390;9.754;2023-05-07T11:53:18;16.30;92.90
30534;DHT22;17318;52.390;9.754;2023-05-07T11:55:44;16.40;93.00
30534;DHT22;17318;52.390;9.754;2023-05-07T11:58:12;16.40;92.90
30534;DHT22;17318;52.390;9.754;2023-05-07T12:00:37;16.50;93.00
30534;DHT22;17318;52.390;9.754;2023-05-07T12:03:04;16.50;92.70
30534;DHT22;17318;52.390;9.754;2023-05-07T12:05:30;16.40;92.90
30534;DHT22;17318;52.390;9.754;2023-05-07T12:07:57;16.40;92.90
30534;DHT22;17318;52.390;9.754;2023-05-07T12:10:22;16.60;92.80
30534;DHT22;17318;52.390;9.754;2023-05-07T12:12:50;16.70;92.70
30534;DHT22;17318;52.390;9.754;2023-05-07T12:15:16;16.50;92.70
30534;DHT22;17318;52.390;9.754;2023-05-07T12:17:43;16.60;92.40
30534;DHT22;17318;52.390;9.754;2023-05-07T12:20:09;16.70;92.30
30534;DHT22;17318;52.390;9.754;2023-05-07T12:22:36;16.70;92.40
30534;DHT22;17318;52.390;9.754;2023-05-07T12:25:02;16.70;92.50
30534;DHT22;17318;52.390;9.754;2023-05-07T12:27:28;16.70;92.40
30534;DHT22;17318;52.390;9.754;2023-05-07T12:29:54;16.80;92.30
30534;DHT22;17318;52.390;9.754;2023-05-07T12:32:21;16.50;92.10
30534;DHT22;17318;52.390;9.754;2023-05-07T12:34:49;16.50;92.50
30534;DHT22;17318;52.390;9.754;2023-05-07T12:37:16;16.40;92.30
30534;DHT22;17318;52.390;9.754;2023-05-07T12:39:47;16.20;92.40
30534;DHT22;17318;52.390;9.754;2023-05-07T12:42:16;16.30;92.50
30534;DHT22;17318;52.390;9.754;2023-05-07T12:44:46;16.20;92.50
30534;DHT22;17318;52.390;9.754;2023-05-07T12:47:12;16.30;92.50
30534;DHT22;17318;52.390;9.754;2023-05-07T12:49:41;16.30;92.40
30534;DHT22;17318;52.390;9.754;2023-05-07T12:52:07;16.30;92.40
30534;DHT22;17318;52.390;9.754;2023-05-07T12:54:34;16.30;92.30
30534;DHT22;17318;52.390;9.754;2023-05-07T12:57:05;16.10;92.40
30534;DHT22;17318;52.390;9.754;2023-05-07T12:59:36;16.10;92.70
30534;DHT22;17318;52.390;9.754;2023-05-07T13:02:02;16.30;92.70
30534;DHT22;17318;52.390;9.754;2023-05-07T13:04:28;16.40;92.70
30534;DHT22;17318;52.390;9.754;2023-05-07T13:06:54;16.40;92.50
30534;DHT22;17318;52.390;9.754;2023-05-07T13:09:20;16.40;92.40
30534;DHT22;17318;52.390;9.754;2023-05-07T13:11:45;16.30;92.40
30534;DHT22;17318;52.390;9.754;2023-05-07T13:14:12;16.40;92.40
30534;DHT22;17318;52.390;9.754;2023-05-07T13:16:38;16.50;92.30
30534;DHT22;17318;52.390;9.754;2023-05-07T13:19:04;16.60;92.20
30534;DHT22;17318;52.390;9.754;2023-05-07T13:21:30;16.60;92.20
30534;DHT22;17318;52.390;9.754;2023-05-07T13:23:57;16.60;92.30
30534;DHT22;17318;52.390;9.754;2023-05-07T13:26:23;16.70;92.00
30534;DHT22;17318;52.390;9.754;2023-05-07T13:28:49;16.60;92.00
30534;DHT22;17318;52.390;9.754;2023-05-07T13:31:15;16.50;92.10
30534;DHT22;17318;52.390;9.754;2023-05-07T13:33:41;16.60;92.30
30534;DHT22;17318;52.390;9.754;2023-05-07T13:36:07;16.60;92.30
30534;DHT22;17318;52.390;9.754;2023-05-07T13:38:32;16.70;92.30
30534;DHT22;17318;52.390;9.754;2023-05-07T13:40:58;16.70;92.10
30534;DHT22;17318;52.390;9.754;2023-05-07T13:43:25;16.90;92.10
30534;DHT22;17318;52.390;9.754;2023-05-07T13:45:50;16.80;92.10
30534;DHT22;17318;52.390;9.754;2023-05-07T13:48:16;16.90;92.00
30534;DHT22;17318;52.390;9.754;2023-05-07T13:50:42;17.00;91.90
30534;DHT22;17318;52.390;9.754;2023-05-07T13:53:08;17.10;91.80
30534;DHT22;17318;52.390;9.754;2023-05-07T13:55:33;17.20;91.60
30534;DHT22;17318;52.390;9.754;2023-05-07T13:58:01;17.10;91.40
30534;DHT22;17318;52.390;9.754;2023-05-07T14:00:27;17.10;91.60
30534;DHT22;17318;52.390;9.754;2023-05-07T14:02:53;17.20;91.70
30534;DHT22;17318;52.390;9.754;2023-05-07T14:05:20;17.30;91.60
30534;DHT22;17318;52.390;9.754;2023-05-07T14:07:46;17.30;91.50
30534;DHT22;17318;52.390;9.754;2023-05-07T14:10:12;17.20;91.50
30534;DHT22;17318;52.390;9.754;2023-05-07T14:12:38;17.10;91.60
30534;DHT22;17318;52.390;9.754;2023-05-07T14:15:04;17.00;91.80
30534;DHT22;17318;52.390;9.754;2023-05-07T14:17:30;17.00;91.70
30534;DHT22;17318;52.390;9.754;2023-05-07T14:19:57;17.00;91.80
30534;DHT22;17318;52.390;9.754;2023-05-07T14:22:23;17.00;91.70
30534;DHT22;17318;52.390;9.754;2023-05-07T14:24:49;16.90;91.70
30534;DHT22;17318;52.390;9.754;2023-05-07T14:27:15;16.90;91.80
30534;DHT22;17318;52.390;9.754;2023-05-07T14:29:41;16.90;91.70
30534;DHT22;17318;52.390;9.754;2023-05-07T14:32:08;16.60;91.60
30534;DHT22;17318;52.390;9.754;2023-05-07T14:34:33;16.60;91.90
30534;DHT22;17318;52.390;9.754;2023-05-07T14:37:00;16.50;92.00
30534;DHT22;17318;52.390;9.754;2023-05-07T14:39:26;16.40;92.10
30534;DHT22;17318;52.390;9.754;2023-05-07T14:41:52;16.30;92.40
30534;DHT22;17318;52.390;9.754;2023-05-07T14:44:20;16.40;92.50
30534;DHT22;17318;52.390;9.754;2023-05-07T14:46:46;16.20;92.50
30534;DHT22;17318;52.390;9.754;2023-05-07T14:49:11;16.10;92.60
30534;DHT22;17318;52.390;9.754;2023-05-07T14:51:45;16.20;92.60
30534;DHT22;17318;52.390;9.754;2023-05-07T14:54:14;16.30;92.60
30534;DHT22;17318;52.390;9.754;2023-05-07T14:56:41;16.30;92.70
30534;DHT22;17318;52.390;9.754;2023-05-07T14:59:08;16.20;92.60
30534;DHT22;17318;52.390;9.754;2023-05-07T15:01:37;16.20;92.40
30534;DHT22;17318;52.390;9.754;2023-05-07T15:04:03;16.00;92.60
30534;DHT22;17318;52.390;9.754;2023-05-07T15:06:29;16.10;92.80
30534;DHT22;17318;52.390;9.754;2023-05-07T15:08:56;16.10;92.90
30534;DHT22;17318;52.390;9.754;2023-05-07T15:11:22;16.10;92.90
30534;DHT22;17318;52.390;9.754;2023-05-07T15:13:47;16.20;92.90
30534;DHT22;17318;52.390;9.754;2023-05-07T15:16:13;16.00;92.80
30534;DHT22;17318;52.390;9.754;2023-05-07T15:18:39;15.90;92.90
30534;DHT22;17318;52.390;9.754;2023-05-07T15:21:04;16.00;93.00
30534;DHT22;17318;52.390;9.754;2023-05-07T15:23:30;16.00;92.90
30534;DHT22;17318;52.390;9.754;2023-05-07T15:25:56;16.10;92.90
30534;DHT22;17318;52.390;9.754;2023-05-07T15:28:22;16.20;92.70
30534;DHT22;17318;52.390;9.754;2023-05-07T15:30:48;16.30;92.70
30534;DHT22;17318;52.390;9.754;2023-05-07T15:33:13;16.20;92.70
30534;DHT22;17318;52.390;9.754;2023-05-07T15:35:39;16.20;92.80
30534;DHT22;17318;52.390;9.754;2023-05-07T15:38:05;16.10;92.80
30534;DHT22;17318;52.390;9.754;2023-05-07T15:40:30;16.10;92.90